Time;durP1;ratioP1;P1;durP2;ratioP2;P2;SDS_P1;SDS_P2;PMS_P1;PMS_P2;Temp;Humidity;BMP_temperature;BMP_pressure;BME280_temperature;BME280_humidity;BME280_pressure;Samples;Min_cycle;Max_cycle;Signal;HPM_P1;HPM_P2
2022/02/05 00:02:46;;;;;;;4.82;2.40;;;;;;;6.59;71.17;96066.66;5047715;28;20052;-76
2022/02/05 00:05:16;;;;;;;4.78;2.75;;;;;;;6.63;70.94;96069.56;5047110;28;20055;-76
2022/02/05 00:07:53;;;;;;;5.03;3.28;;;;;;;6.63;70.76;96069.56;5047934;28;20049;-75
2022/02/05 00:13:18;;;;;;;5.55;2.97;;;;;;;6.62;70.65;96076.06;5045045;28;20538;-76
2022/02/05 00:15:54;;;;;;;4.57;2.55;;;;;;;6.63;70.71;96069.56;5047057;28;20056;-76
2022/02/05 00:40:44;;;;;;;4.63;2.50;;;;;;;6.66;70.71;96101.44;5047234;28;20098;-76
2022/02/05 00:43:06;;;;;;;4.40;2.35;;;;;;;6.68;70.79;96105.47;5046868;28;20053;-76
2022/02/05 00:45:35;;;;;;;4.40;2.33;;;;;;;6.70;71.00;96108.66;5047152;28;20053;-76
2022/02/05 00:48:03;;;;;;;5.78;2.00;;;;;;;6.74;71.22;96125.13;5047378;28;20076;-76
2022/02/05 00:50:33;;;;;;;3.78;2.13;;;;;;;6.66;71.69;96117.66;5046880;28;20159;-76
2022/02/05 00:53:02;;;;;;;4.22;2.22;;;;;;;6.52;73.58;96112.22;5047839;28;20492;-75
2022/02/05 00:55:34;;;;;;;4.68;2.35;;;;;;;6.36;75.12;96135.22;5048013;28;20138;-75
2022/02/05 00:58:03;;;;;;;5.05;2.45;;;;;;;6.20;76.75;96142.78;5051535;28;20045;-76
2022/02/05 01:00:31;;;;;;;2.83;1.77;;;;;;;5.89;79.70;96205.38;5050846;28;20051;-75
2022/02/05 01:02:58;;;;;;;1.60;1.08;;;;;;;5.14;80.49;96205.25;5051163;28;20492;-76
2022/02/05 01:05:25;;;;;;;1.55;0.80;;;;;;;4.69;82.54;96208.09;5050436;28;20052;-75
2022/02/05 01:07:52;;;;;;;3.00;1.08;;;;;;;4.48;83.70;96216.66;5051087;28;20056;-78
2022/02/05 01:10:19;;;;;;;1.30;0.90;;;;;;;4.29;85.02;96220.03;5051052;28;20423;-76
2022/02/05 01:12:51;;;;;;;1.52;0.80;;;;;;;4.20;85.96;96221.72;5051379;28;20067;-76
2022/02/05 01:15:20;;;;;;;1.17;0.60;;;;;;;4.08;86.79;96232.06;5050308;28;20103;-76
2022/02/05 01:17:52;;;;;;;0.90;0.68;;;;;;;3.98;86.78;96229.41;5050869;28;20049;-76
2022/02/05 01:20:59;;;;;;;1.50;0.60;;;;;;;3.93;86.44;96233.75;5050213;28;20045;-75
2022/02/05 01:23:33;;;;;;;0.95;0.65;;;;;;;3.88;86.80;96246.44;5050693;28;20048;-76
2022/02/05 01:26:08;;;;;;;0.70;0.70;;;;;;;3.85;86.66;96238.91;5050533;28;20045;-76
2022/02/05 01:28:38;;;;;;;1.95;0.70;;;;;;;3.81;86.87;96252.13;5050748;28;20662;-75
2022/02/05 01:31:05;;;;;;;2.53;0.90;;;;;;;3.78;87.06;96273.41;5050758;28;20106;-76
2022/02/05 01:33:50;;;;;;;1.48;0.85;;;;;;;3.79;86.86;96270.44;5050435;28;20077;-75
2022/02/05 01:39:21;;;;;;;3.45;0.68;;;;;;;3.75;86.55;96268.56;5049786;28;20061;-75
2022/02/05 01:39:37;;;;;;;1.75;0.90;;;;;;;3.75;87.01;96258.59;5050180;28;20079;-77
2022/02/05 01:50:32;;;;;;;1.13;0.88;;;;;;;3.84;85.87;96302.75;5049632;28;20063;-76
2022/02/05 01:53:09;;;;;;;2.13;0.90;;;;;;;3.80;85.28;96317.84;5050549;28;20045;-76
2022/02/05 01:55:51;;;;;;;1.42;0.88;;;;;;;3.76;85.73;96332.97;5049572;28;20041;-77
2022/02/05 01:58:24;;;;;;;0.90;0.70;;;;;;;3.80;85.55;96336.69;5049964;28;20073;-76
2022/02/05 02:06:32;;;;;;;1.52;1.00;;;;;;;3.56;83.83;96338.41;5049048;28;20787;-75
2022/02/05 02:11:46;;;;;;;1.20;1.00;;;;;;;3.40;84.47;96324.97;5049833;28;20060;-75
2022/02/05 02:14:33;;;;;;;1.65;1.23;;;;;;;3.36;84.86;96323.91;5049497;28;20049;-76
2022/02/05 02:20:00;;;;;;;1.98;1.33;;;;;;;3.24;85.32;96326.09;5007705;28;20149;-75
2022/02/05 02:22:34;;;;;;;2.63;1.40;;;;;;;3.29;85.00;96334.16;5029713;28;20053;-76
2022/02/05 02:25:06;;;;;;;3.20;1.52;;;;;;;3.26;85.01;96364.28;5029621;28;20591;-76
2022/02/05 02:27:40;;;;;;;1.80;1.40;;;;;;;3.27;84.78;96370.47;5029540;28;20598;-75
2022/02/05 02:30:14;;;;;;;1.80;1.27;;;;;;;3.26;85.18;96385.81;5029714;28;20369;-76
2022/02/05 02:32:45;;;;;;;1.92;1.42;;;;;;;3.22;85.96;96386.63;5029674;28;20139;-76
2022/02/05 02:35:16;;;;;;;2.47;1.50;;;;;;;3.22;85.91;96384.75;5028925;28;20053;-76
2022/02/05 02:37:50;;;;;;;2.28;1.63;;;;;;;3.16;85.87;96383.13;5029466;28;20049;-77
2022/02/05 02:40:25;;;;;;;1.98;1.55;;;;;;;3.26;85.54;96391.19;5029221;28;20562;-75
2022/02/05 02:42:59;;;;;;;2.53;1.67;;;;;;;3.30;85.37;96386.91;5029631;28;20073;-76
2022/02/05 02:45:26;;;;;;;2.28;1.48;;;;;;;3.36;84.96;96395.78;5028966;28;20045;-76
2022/02/05 02:47:52;;;;;;;2.63;1.50;;;;;;;3.33;83.87;96397.09;5029574;28;20045;-75
2022/02/05 02:50:31;;;;;;;2.75;1.50;;;;;;;3.32;83.46;96400.06;5046838;28;20056;-75
2022/02/05 02:58:30;;;;;;;2.42;1.35;;;;;;;3.33;82.29;96428.59;5049008;28;20102;-75
2022/02/05 03:00:59;;;;;;;2.17;1.35;;;;;;;3.25;81.89;96432.66;5049241;28;20095;-74
2022/02/05 03:03:26;;;;;;;2.08;1.10;;;;;;;3.17;79.72;96437.75;5048605;28;20412;-78
2022/02/05 03:05:53;;;;;;;2.17;1.17;;;;;;;3.09;79.81;96439.91;5048280;28;20067;-77
2022/02/05 03:08:21;;;;;;;2.67;1.00;;;;;;;3.10;79.77;96441.53;5048259;28;20053;-75
2022/02/05 03:10:47;;;;;;;2.72;1.35;;;;;;;3.05;78.90;96448.78;5049060;28;20515;-75
2022/02/05 03:13:14;;;;;;;1.70;1.10;;;;;;;3.05;77.95;96448.78;5048684;28;20142;-78
2022/02/05 03:15:42;;;;;;;1.40;0.90;;;;;;;3.00;77.95;96454.16;5048257;28;20049;-77
2022/02/05 03:18:13;;;;;;;1.08;0.90;;;;;;;2.91;78.32;96459.25;5048162;28;20052;-75
2022/02/05 03:20:39;;;;;;;1.50;1.10;;;;;;;2.86;78.04;96462.72;5048702;28;20040;-75
2022/02/05 03:23:06;;;;;;;1.10;0.80;;;;;;;2.88;77.01;96465.97;5048460;28;20503;-78
2022/02/05 03:25:35;;;;;;;1.40;0.95;;;;;;;2.88;77.58;96476.72;5047987;28;20048;-78
2022/02/05 03:28:02;;;;;;;2.00;1.10;;;;;;;2.92;76.89;96473.50;5048519;28;20041;-78
2022/02/05 03:30:29;;;;;;;0.80;0.80;;;;;;;2.79;74.98;96491.75;5048147;28;20407;-77
2022/02/05 03:32:58;;;;;;;1.40;1.00;;;;;;;2.77;75.93;96485.84;5048165;28;20059;-78
2022/02/05 03:35:24;;;;;;;2.00;1.00;;;;;;;2.79;76.37;96489.06;5047454;28;20120;-78
2022/02/05 03:37:51;;;;;;;1.48;1.00;;;;;;;2.78;75.14;96492.84;5048253;28;20048;-77
2022/02/05 03:40:17;;;;;;;3.10;1.10;;;;;;;2.64;75.42;96502.47;5047876;28;20057;-78
2022/02/05 03:42:45;;;;;;;1.13;0.80;;;;;;;2.70;75.10;96512.16;5044476;28;20053;-75
2022/02/05 03:45:14;;;;;;;1.23;0.95;;;;;;;2.71;75.77;96519.16;5047503;28;20049;-78
2022/02/05 03:47:41;;;;;;;0.85;0.80;;;;;;;2.65;75.51;96525.59;5048028;28;20514;-77
2022/02/05 03:50:08;;;;;;;2.78;0.95;;;;;;;2.58;76.02;96533.09;5047505;28;20132;-75
2022/02/05 03:52:36;;;;;;;2.42;0.90;;;;;;;2.53;75.68;96544.63;5048352;28;20490;-75
2022/02/05 03:55:03;;;;;;;2.63;0.98;;;;;;;2.52;73.33;96555.66;5047269;28;20045;-78
2022/02/05 03:57:29;;;;;;;1.77;0.77;;;;;;;2.43;71.53;96562.59;5048201;28;20045;-77
2022/02/05 03:59:58;;;;;;;1.88;0.98;;;;;;;2.39;70.61;96559.59;5048142;28;20045;-78
2022/02/05 04:02:25;;;;;;;3.75;0.70;;;;;;;2.35;70.32;96563.91;5047482;28;20060;-78
2022/02/05 04:04:51;;;;;;;3.72;0.82;;;;;;;2.34;70.60;96570.31;5047994;28;20056;-77
2022/02/05 04:07:18;;;;;;;3.90;1.02;;;;;;;2.31;71.37;96574.34;5047736;28;20124;-78
2022/02/05 04:09:46;;;;;;;3.83;1.25;;;;;;;2.21;71.20;96589.59;5047791;28;20079;-77
2022/02/05 04:17:42;;;;;;;1.25;0.85;;;;;;;2.20;72.98;96591.50;5047762;28;20423;-78
2022/02/05 04:20:09;;;;;;;2.13;0.90;;;;;;;2.23;72.99;96593.63;5047540;28;20068;-77
2022/02/05 04:22:36;;;;;;;2.08;0.90;;;;;;;2.26;73.74;96601.19;5047634;28;20048;-78
2022/02/05 04:25:02;;;;;;;3.72;0.77;;;;;;;2.10;73.85;96604.84;5047315;28;20142;-75
2022/02/05 04:27:29;;;;;;;3.45;0.82;;;;;;;2.03;73.64;96618.47;5047910;28;20122;-76
2022/02/05 04:29:55;;;;;;;3.30;1.00;;;;;;;2.01;74.18;96625.19;5047398;28;20037;-75
2022/02/05 04:32:23;;;;;;;4.80;0.80;;;;;;;1.94;74.06;96627.28;5046985;28;20059;-76
2022/02/05 04:34:50;;;;;;;2.33;1.00;;;;;;;1.89;74.01;96635.31;5047701;28;20048;-77
2022/02/05 04:37:19;;;;;;;1.02;0.80;;;;;;;1.85;73.52;96639.56;5047288;28;20076;-76
2022/02/05 04:39:52;;;;;;;1.20;0.88;;;;;;;1.80;73.93;96643.00;5047485;28;20052;-75
2022/02/05 04:42:25;;;;;;;8.52;1.15;;;;;;;1.80;73.50;96643.81;5046817;28;20495;-75
2022/02/05 04:45:16;;;;;;;1.33;0.90;;;;;;;1.75;72.71;96651.00;5047372;28;20126;-75
2022/02/05 04:47:58;;;;;;;3.13;1.02;;;;;;;1.72;73.04;96668.44;5047401;28;20076;-76
2022/02/05 04:50:54;;;;;;;4.25;1.10;;;;;;;1.69;72.72;96663.56;5047140;28;20044;-75
2022/02/05 04:53:35;;;;;;;4.47;1.30;;;;;;;1.62;72.87;96660.28;5047009;28;20435;-75
2022/02/05 04:59:06;;;;;;;5.07;1.10;;;;;;;1.53;73.74;96665.28;5036560;28;20052;-75
2022/02/05 05:01:47;;;;;;;2.88;1.23;;;;;;;1.50;73.17;96673.03;5047315;28;20045;-75
2022/02/05 05:04:26;;;;;;;3.05;1.15;;;;;;;1.46;73.09;96674.59;5046844;28;20048;-75
2022/02/05 05:09:48;;;;;;;3.40;1.35;;;;;;;1.40;73.53;96680.97;5047382;28;20247;-75
2022/02/05 05:12:22;;;;;;;6.13;1.30;;;;;;;1.35;73.28;96672.88;5046485;28;20107;-76
2022/02/05 05:20:19;;;;;;;3.47;1.13;;;;;;;1.23;74.11;96676.50;5046790;28;20052;-76
2022/02/05 05:22:46;;;;;;;4.13;1.05;;;;;;;1.16;74.23;96675.06;5047078;28;20422;-77
2022/02/05 05:25:12;;;;;;;4.32;1.30;;;;;;;1.08;74.73;96687.03;5046614;28;20049;-76
2022/02/05 05:27:39;;;;;;;4.60;1.17;;;;;;;1.02;75.14;96701.44;5047076;28;20056;-76
2022/02/05 05:30:07;;;;;;;2.30;1.20;;;;;;;0.96;75.15;96689.03;5046773;28;20052;-76
2022/02/05 05:32:34;;;;;;;4.50;1.20;;;;;;;0.93;75.49;96697.56;5046810;28;20052;-76
2022/02/05 05:35:00;;;;;;;2.53;1.10;;;;;;;0.93;75.33;96693.00;5046963;28;20049;-76
2022/02/05 05:37:28;;;;;;;4.60;1.13;;;;;;;0.94;75.56;96699.19;5046485;28;20045;-76
2022/02/05 05:39:55;;;;;;;4.13;1.00;;;;;;;0.95;75.83;96701.63;5047012;28;20045;-77
2022/02/05 05:42:24;;;;;;;2.92;1.15;;;;;;;0.93;75.83;96701.06;5047096;28;20060;-76
2022/02/05 05:45:20;;;;;;;6.47;1.38;;;;;;;0.96;75.90;96705.94;5050463;28;20056;-77
2022/02/05 05:47:52;;;;;;;3.00;1.00;;;;;;;0.96;76.10;96710.50;5050500;28;20468;-76
2022/02/05 05:53:06;;;;;;;1.55;0.88;;;;;;;0.98;76.90;96713.72;5050362;28;20044;-78
2022/02/05 05:55:33;;;;;;;2.65;1.10;;;;;;;1.00;77.12;96714.31;5050375;28;20388;-78
2022/02/05 05:58:00;;;;;;;3.85;1.20;;;;;;;1.03;76.94;96724.53;5050513;28;20416;-76
2022/02/05 06:00:27;;;;;;;6.95;1.15;;;;;;;1.02;77.12;96725.59;5049648;28;20051;-76
2022/02/05 06:02:54;;;;;;;4.32;1.40;;;;;;;1.01;77.11;96730.13;5050050;28;20045;-76
2022/02/05 06:05:21;;;;;;;4.45;1.50;;;;;;;1.01;77.12;96737.38;5049520;28;20446;-76
2022/02/05 06:07:47;;;;;;;4.63;1.20;;;;;;;0.99;77.42;96734.09;5050086;28;20515;-76
2022/02/05 06:10:15;;;;;;;5.50;1.42;;;;;;;0.92;77.36;96733.50;5049959;28;20044;-76
2022/02/05 06:12:41;;;;;;;2.50;1.25;;;;;;;0.94;77.51;96737.56;5049428;28;20049;-76
2022/02/05 06:15:09;;;;;;;2.40;1.30;;;;;;;0.92;77.56;96744.22;5049321;28;20045;-76
2022/02/05 06:17:36;;;;;;;2.63;1.02;;;;;;;0.90;77.30;96741.78;5050286;28;20115;-76
2022/02/05 06:20:04;;;;;;;2.15;1.10;;;;;;;0.88;77.68;96740.41;5049304;28;20130;-76
2022/02/05 06:22:30;;;;;;;1.40;1.00;;;;;;;0.85;77.90;96746.28;5049618;28;20045;-76
2022/02/05 06:24:57;;;;;;;2.13;1.10;;;;;;;0.87;77.80;96753.00;5049495;28;20044;-76
2022/02/05 06:27:25;;;;;;;4.88;1.30;;;;;;;0.88;78.09;96748.44;5049644;28;20068;-75
2022/02/05 06:29:51;;;;;;;1.40;0.95;;;;;;;0.91;78.05;96766.72;5049763;28;20052;-76
2022/02/05 06:32:18;;;;;;;4.13;1.10;;;;;;;0.92;77.60;96757.63;5049187;28;20059;-76
2022/02/05 06:34:45;;;;;;;2.35;1.20;;;;;;;0.94;78.03;96763.53;5049453;28;20071;-76
2022/02/05 06:37:11;;;;;;;2.70;1.25;;;;;;;0.98;77.93;96772.72;5049293;28;20079;-75
2022/02/05 06:39:38;;;;;;;2.60;1.42;;;;;;;1.00;77.76;96778.66;5049685;28;20535;-75
2022/02/05 06:42:06;;;;;;;2.55;1.40;;;;;;;0.99;77.90;96782.38;5048495;28;20044;-75
2022/02/05 06:44:34;;;;;;;3.20;1.20;;;;;;;1.00;78.02;96778.66;5049175;28;20250;-75
2022/02/05 06:47:00;;;;;;;4.05;1.40;;;;;;;1.02;78.21;96792.63;5049314;28;20049;-75
2022/02/05 06:49:30;;;;;;;3.55;1.30;;;;;;;0.99;78.55;96803.84;5048875;28;20052;-75
2022/02/05 06:51:56;;;;;;;2.83;1.70;;;;;;;0.97;78.71;96795.22;5049413;28;20056;-75
2022/02/05 06:54:23;;;;;;;6.10;2.05;;;;;;;0.94;79.20;96796.56;5048153;28;20049;-75
2022/02/05 06:56:49;;;;;;;3.33;1.90;;;;;;;0.89;79.70;96803.69;5049352;28;20048;-75
2022/02/05 06:59:17;;;;;;;3.40;1.70;;;;;;;0.91;80.04;96796.22;5048952;28;20045;-75
2022/02/05 07:01:45;;;;;;;3.00;1.80;;;;;;;0.92;80.24;96808.56;5048809;28;20064;-76
2022/02/05 07:04:11;;;;;;;4.93;1.70;;;;;;;0.91;80.18;96815.00;5048436;28;20048;-76
2022/02/05 07:06:38;;;;;;;5.63;1.77;;;;;;;0.90;79.93;96799.97;5049047;28;20051;-76
2022/02/05 07:09:05;;;;;;;3.17;1.60;;;;;;;0.91;79.71;96807.75;5048594;28;20060;-76
2022/02/05 07:11:34;;;;;;;3.15;1.75;;;;;;;0.90;79.16;96808.00;5048167;28;20546;-76
2022/02/05 07:14:02;;;;;;;4.15;1.67;;;;;;;0.95;79.02;96814.25;5048415;28;20045;-76
2022/02/05 07:16:33;;;;;;;2.45;1.63;;;;;;;0.94;78.44;96812.63;5048859;28;20503;-76
2022/02/05 07:19:15;;;;;;;5.15;1.77;;;;;;;0.98;78.34;96823.66;5048786;28;20048;-79
2022/02/05 07:21:46;;;;;;;8.15;1.80;;;;;;;1.06;78.05;96825.13;5047456;28;20041;-77
2022/02/05 07:24:29;;;;;;;2.17;1.65;;;;;;;1.12;77.34;96835.69;5047086;28;20045;-76
2022/02/05 07:29:40;;;;;;;3.20;1.73;;;;;;;1.34;76.54;96837.59;5047621;28;20060;-77
2022/02/05 07:32:07;;;;;;;5.75;1.58;;;;;;;1.51;76.30;96836.53;5047906;28;20064;-75
2022/02/05 07:34:36;;;;;;;3.45;1.33;;;;;;;1.59;75.95;96834.44;5047911;28;20053;-75
2022/02/05 07:37:04;;;;;;;4.15;1.40;;;;;;;1.68;75.38;96839.16;5048092;28;20126;-76
2022/02/05 07:39:32;;;;;;;2.78;1.40;;;;;;;1.70;75.06;96837.00;5047623;28;20140;-77
2022/02/05 07:42:00;;;;;;;4.65;1.90;;;;;;;1.76;75.42;96844.06;5047974;28;20048;-76
2022/02/05 07:44:26;;;;;;;3.33;1.67;;;;;;;1.75;74.99;96850.50;5047207;28;20056;-78
2022/02/05 07:46:53;;;;;;;2.45;1.33;;;;;;;1.76;74.90;96846.75;5048343;28;20048;-76
2022/02/05 07:49:22;;;;;;;5.00;1.70;;;;;;;1.81;75.51;96856.75;5047273;28;20053;-77
2022/02/05 07:51:50;;;;;;;2.55;1.45;;;;;;;1.83;74.66;96858.13;5047218;28;20044;-76
2022/02/05 07:54:18;;;;;;;3.28;1.52;;;;;;;1.85;74.26;96859.75;5045318;28;20071;-76
2022/02/05 07:56:45;;;;;;;2.88;1.55;;;;;;;1.85;74.31;96863.25;5047361;28;20052;-77
2022/02/05 07:59:13;;;;;;;3.78;1.42;;;;;;;1.84;73.76;96861.63;5046906;28;20049;-76
2022/02/05 08:01:40;;;;;;;3.92;1.67;;;;;;;1.80;73.52;96868.56;5047091;28;20045;-76
2022/02/05 08:04:07;;;;;;;2.80;1.40;;;;;;;1.85;73.94;96865.13;5046307;28;20049;-76
2022/02/05 08:06:34;;;;;;;4.68;1.50;;;;;;;1.83;73.58;96871.56;5047471;28;20053;-76
2022/02/05 08:09:11;;;;;;;4.57;1.73;;;;;;;1.87;73.26;96876.41;5047527;28;20044;-76
2022/02/05 08:11:41;;;;;;;4.75;1.50;;;;;;;1.88;73.05;96880.72;5047275;28;20041;-74
2022/02/05 08:14:10;;;;;;;6.95;1.40;;;;;;;1.98;72.66;96886.22;5047107;28;20501;-74
2022/02/05 08:16:50;;;;;;;2.80;1.67;;;;;;;2.05;72.65;96886.84;5047624;28;20492;-75
2022/02/05 08:19:18;;;;;;;3.65;1.42;;;;;;;2.15;72.68;96897.72;5047462;28;20122;-75
2022/02/05 08:21:44;;;;;;;3.53;1.40;;;;;;;2.23;72.07;96905.31;5047502;28;20049;-75
2022/02/05 08:24:12;;;;;;;3.17;1.50;;;;;;;2.31;71.19;96894.16;5047131;28;20049;-75
2022/02/05 08:26:39;;;;;;;5.70;1.75;;;;;;;2.41;70.93;96889.97;5047417;28;20055;-76
2022/02/05 08:29:08;;;;;;;4.38;1.70;;;;;;;2.46;70.47;96898.06;5047308;28;20048;-76
2022/02/05 08:31:35;;;;;;;2.28;1.50;;;;;;;2.46;69.96;96892.69;5047665;28;20508;-76
2022/02/05 08:34:01;;;;;;;5.35;1.45;;;;;;;2.58;70.07;96898.72;5047229;28;20049;-75
2022/02/05 08:36:30;;;;;;;5.30;1.70;;;;;;;2.64;69.14;96900.41;5047480;28;20044;-76
2022/02/05 08:38:57;;;;;;;3.50;1.30;;;;;;;2.72;68.02;96902.66;5047537;28;20492;-77
2022/02/05 08:41:25;;;;;;;4.05;1.50;;;;;;;2.80;68.39;96915.63;5047134;28;20037;-77
2022/02/05 08:43:52;;;;;;;2.85;1.33;;;;;;;2.88;67.75;96923.22;5046653;28;20566;-76
2022/02/05 08:46:18;;;;;;;9.23;1.60;;;;;;;2.85;67.25;96914.84;5046882;28;20076;-76
2022/02/05 08:48:45;;;;;;;4.22;1.75;;;;;;;2.98;67.85;96916.34;5047443;28;20041;-75
2022/02/05 08:51:14;;;;;;;3.08;1.27;;;;;;;3.15;66.97;96922.38;5046793;28;20114;-76
2022/02/05 08:53:41;;;;;;;5.78;1.35;;;;;;;3.26;66.16;96929.47;5047144;28;20449;-77
2022/02/05 08:56:08;;;;;;;3.65;1.45;;;;;;;3.36;65.38;96926.88;5046768;28;20049;-78
2022/02/05 08:58:36;;;;;;;3.40;1.27;;;;;;;3.33;65.98;96934.63;5047724;28;20052;-77
2022/02/05 09:01:14;;;;;;;2.10;1.30;;;;;;;3.40;66.38;96935.25;5046510;28;20059;-77
2022/02/05 09:03:48;;;;;;;3.67;1.45;;;;;;;3.54;65.01;96935.59;5047165;28;20053;-77
2022/02/05 09:06:18;;;;;;;2.97;1.00;;;;;;;3.45;64.84;96940.66;5046173;28;20099;-78
2022/02/05 09:08:49;;;;;;;3.97;1.27;;;;;;;3.48;65.58;96939.31;5047318;28;20048;-79
2022/02/05 09:11:29;;;;;;;5.05;1.98;;;;;;;3.44;64.40;96936.31;5044823;28;20774;-78
2022/02/05 09:14:12;;;;;;;1.85;1.20;;;;;;;3.37;64.15;96941.94;5045603;28;20442;-77
2022/02/05 09:16:40;;;;;;;3.40;1.35;;;;;;;3.49;63.51;96930.19;5048558;28;20051;-76
2022/02/05 09:19:06;;;;;;;3.78;1.30;;;;;;;3.52;64.32;96933.16;5050518;28;20053;-77
2022/02/05 09:21:33;;;;;;;3.80;1.15;;;;;;;3.53;65.11;96924.00;5053592;28;20053;-76
2022/02/05 09:24:02;;;;;;;8.95;1.40;;;;;;;3.69;64.25;96919.53;5054018;28;20052;-77
2022/02/05 09:26:30;;;;;;;3.65;1.10;;;;;;;3.68;63.25;96923.31;5053034;28;20044;-76
2022/02/05 09:29:03;;;;;;;5.10;1.40;;;;;;;3.72;61.97;96923.63;5053197;28;20068;-77
2022/02/05 09:31:34;;;;;;;4.65;0.93;;;;;;;3.73;61.88;96926.03;5054078;28;20061;-76
2022/02/05 09:34:00;;;;;;;4.50;1.10;;;;;;;3.80;61.46;96915.84;5053459;28;20049;-76
2022/02/05 09:36:27;;;;;;;4.97;1.38;;;;;;;3.87;61.63;96921.00;5053304;28;20407;-76
2022/02/05 09:38:55;;;;;;;2.67;1.08;;;;;;;3.70;61.45;96918.47;5053961;28;20053;-77
2022/02/05 09:41:22;;;;;;;5.38;1.30;;;;;;;3.71;60.23;96921.97;5053036;28;20419;-78
2022/02/05 09:43:50;;;;;;;5.90;1.27;;;;;;;3.95;62.47;96919.69;5052867;28;20045;-76
2022/02/05 09:46:20;;;;;;;6.55;1.25;;;;;;;4.25;58.85;96922.53;5053133;28;20061;-77
2022/02/05 09:48:48;;;;;;;3.58;1.05;;;;;;;4.57;59.43;96929.66;5053270;28;20045;-76
2022/02/05 09:51:18;;;;;;;3.78;1.13;;;;;;;4.39;57.93;96937.16;5052594;28;20048;-76
2022/02/05 09:53:52;;;;;;;4.68;1.25;;;;;;;4.62;58.66;96924.28;5053302;28;20065;-78
2022/02/05 09:56:21;;;;;;;4.85;1.35;;;;;;;5.05;57.75;96931.09;5052835;28;20056;-79
2022/02/05 09:58:48;;;;;;;2.95;0.93;;;;;;;5.59;56.97;96932.47;5052741;28;20080;-77
2022/02/05 10:01:17;;;;;;;3.20;0.90;;;;;;;5.68;55.30;96941.63;5052431;28;20048;-76
2022/02/05 10:03:47;;;;;;;6.07;1.33;;;;;;;5.75;54.35;96953.00;5052224;28;20049;-76
2022/02/05 10:06:18;;;;;;;7.35;1.25;;;;;;;5.56;53.25;96938.41;5052578;28;20051;-76
2022/02/05 10:08:47;;;;;;;7.57;1.38;;;;;;;5.20;54.96;96935.69;5052832;28;20041;-77
2022/02/05 10:11:13;;;;;;;3.85;1.27;;;;;;;5.14;55.60;96947.59;5053103;28;20052;-76
2022/02/05 10:13:41;;;;;;;3.08;1.42;;;;;;;4.97;55.94;96945.13;5051437;28;20052;-77
2022/02/05 10:16:08;;;;;;;4.10;1.10;;;;;;;4.60;56.63;96948.81;5052697;28;20071;-77
2022/02/05 10:18:37;;;;;;;2.38;1.23;;;;;;;4.36;57.70;96953.03;5052482;28;20041;-78
2022/02/05 10:21:20;;;;;;;4.38;1.50;;;;;;;4.35;58.90;96948.72;5052653;28;20056;-77
2022/02/05 10:23:55;;;;;;;5.35;1.42;;;;;;;4.66;58.70;96974.75;5031557;28;20508;-77
2022/02/05 10:26:29;;;;;;;4.43;1.50;;;;;;;4.62;56.31;96945.84;5041229;28;20475;-77
2022/02/05 10:29:03;;;;;;;6.50;1.20;;;;;;;4.43;56.83;96945.50;5052156;28;20065;-78
2022/02/05 10:31:31;;;;;;;5.10;1.20;;;;;;;4.41;56.83;96951.19;5052221;28;20072;-79
2022/02/05 10:34:09;;;;;;;7.53;1.85;;;;;;;4.44;59.50;96945.25;5052607;28;20051;-78
2022/02/05 10:36:42;;;;;;;5.00;1.38;;;;;;;4.48;57.19;96952.81;5039624;28;20048;-77
2022/02/05 10:39:13;;;;;;;5.80;1.60;;;;;;;4.24;56.61;96941.69;5031467;28;20049;-77
2022/02/05 10:44:28;;;;;;;6.03;1.25;;;;;;;4.41;57.13;96947.66;5050132;28;20084;-77
2022/02/05 10:46:57;;;;;;;5.57;1.38;;;;;;;4.43;56.90;96943.63;5051464;28;20075;-77
2022/02/05 10:49:45;;;;;;;2.78;1.27;;;;;;;4.44;56.78;96947.16;5051191;28;20048;-78
2022/02/05 10:52:27;;;;;;;7.85;1.70;;;;;;;4.73;57.97;96939.41;5051041;28;20052;-77
2022/02/05 10:55:08;;;;;;;5.55;1.48;;;;;;;5.31;54.68;96944.63;5051555;28;20090;-77
2022/02/05 10:57:42;;;;;;;5.07;1.40;;;;;;;5.32;55.89;96933.53;5051200;28;20110;-79
2022/02/05 11:05:42;;;;;;;5.32;1.70;;;;;;;6.14;53.74;96934.28;5051099;28;20070;-78
2022/02/05 11:08:11;;;;;;;2.47;1.30;;;;;;;5.78;52.74;96930.81;5050735;28;20053;-78
2022/02/05 11:19:09;;;;;;;1.88;1.05;;;;;;;4.88;53.23;96917.84;5049885;28;20056;-80
2022/02/05 11:21:36;;;;;;;2.83;1.17;;;;;;;4.75;55.39;96912.16;5050470;28;20052;-79
2022/02/05 11:24:07;;;;;;;4.28;1.13;;;;;;;4.73;55.56;96920.53;5050327;28;20117;-79
2022/02/05 11:26:35;;;;;;;6.00;1.45;;;;;;;4.74;56.15;96927.53;5050472;28;20095;-79
2022/02/05 11:29:04;;;;;;;4.57;1.20;;;;;;;4.56;53.77;96933.44;5050807;28;20045;-79
2022/02/05 11:31:34;;;;;;;5.57;1.13;;;;;;;4.56;54.04;96936.13;5048408;28;20045;-78
2022/02/05 11:34:30;;;;;;;3.60;1.13;;;;;;;4.53;54.21;96942.03;5048888;28;20049;-77
2022/02/05 11:37:04;;;;;;;4.32;1.10;;;;;;;4.54;54.72;96936.41;5049602;28;20706;-77
2022/02/05 11:39:44;;;;;;;2.35;0.90;;;;;;;4.51;55.07;96936.91;5049981;28;20487;-78
2022/02/05 11:42:31;;;;;;;5.60;1.13;;;;;;;4.59;56.72;96935.59;5049001;28;20076;-77
2022/02/05 11:44:59;;;;;;;3.72;1.15;;;;;;;4.48;55.75;96940.13;5050372;28;20045;-78
2022/02/05 11:47:31;;;;;;;2.35;1.10;;;;;;;4.54;55.55;96949.06;5049905;28;20048;-80
2022/02/05 11:50:17;;;;;;;5.47;1.20;;;;;;;4.65;54.94;96934.53;5050334;28;20041;-78
2022/02/05 11:52:54;;;;;;;2.58;1.00;;;;;;;4.84;55.03;96943.75;5050250;28;20033;-80
2022/02/05 11:55:32;;;;;;;2.72;1.00;;;;;;;4.72;54.46;96945.88;5049543;28;20052;-77
2022/02/05 11:58:01;;;;;;;3.85;1.08;;;;;;;4.86;53.91;96936.22;5050228;28;20060;-78
2022/02/05 12:00:32;;;;;;;3.42;1.15;;;;;;;5.10;53.96;96941.91;5048400;28;20049;-79
2022/02/05 12:03:00;;;;;;;4.78;1.40;;;;;;;4.91;54.16;96938.91;5050178;28;20061;-78
2022/02/05 12:05:32;;;;;;;4.13;1.10;;;;;;;4.66;54.08;96936.16;5049975;28;20130;-80
2022/02/05 12:08:21;;;;;;;2.72;1.30;;;;;;;4.56;54.98;96941.53;5050428;28;20059;-77
2022/02/05 12:10:52;;;;;;;6.00;0.98;;;;;;;4.48;54.91;96934.75;5050211;28;20540;-79
2022/02/05 12:13:21;;;;;;;3.55;1.27;;;;;;;4.42;54.94;96925.81;5049180;28;20052;-78
2022/02/05 12:15:49;;;;;;;5.85;1.20;;;;;;;4.83;55.69;96923.25;5050011;28;20124;-77
2022/02/05 12:18:26;;;;;;;5.70;1.10;;;;;;;5.21;52.92;96923.81;5049419;28;20049;-78
2022/02/05 12:21:12;;;;;;;4.95;1.00;;;;;;;5.20;52.10;96924.91;5049101;28;20041;-78
2022/02/05 12:27:02;;;;;;;1.52;0.75;;;;;;;4.91;52.68;96917.34;5049751;28;20554;-78
2022/02/05 12:29:31;;;;;;;3.78;0.98;;;;;;;5.02;53.76;96917.34;5049881;28;20067;-78
2022/02/05 12:31:59;;;;;;;3.13;1.10;;;;;;;4.93;54.11;96917.06;5050064;28;20072;-78
2022/02/05 12:34:33;;;;;;;4.88;1.00;;;;;;;4.84;53.23;96910.56;5049636;28;20107;-79
2022/02/05 12:37:01;;;;;;;6.22;1.23;;;;;;;4.75;54.18;96913.00;5050216;28;20047;-79
2022/02/05 12:39:30;;;;;;;5.18;1.30;;;;;;;5.03;54.35;96908.16;5049100;28;20511;-78
2022/02/05 12:42:00;;;;;;;4.50;1.17;;;;;;;5.56;52.42;96911.41;5049098;28;20049;-78
2022/02/05 12:44:30;;;;;;;2.15;1.13;;;;;;;5.70;52.11;96907.06;5049892;28;20055;-79
2022/02/05 12:47:01;;;;;;;4.30;1.00;;;;;;;5.88;50.97;96906.47;5049692;28;20124;-79
2022/02/05 12:49:32;;;;;;;3.42;1.23;;;;;;;5.89;50.74;96905.38;5049407;28;20041;-78
2022/02/05 12:52:00;;;;;;;7.63;1.35;;;;;;;5.89;51.68;96905.38;5051740;28;20107;-79
2022/02/05 12:54:29;;;;;;;2.88;0.93;;;;;;;6.05;50.72;96898.06;5052888;28;20055;-77
2022/02/05 12:56:58;;;;;;;2.22;1.10;;;;;;;5.93;50.53;96901.06;5054039;28;20048;-80
2022/02/05 12:59:32;;;;;;;2.08;1.08;;;;;;;5.99;51.28;96904.56;5053183;28;20051;-80
2022/02/05 13:02:01;;;;;;;3.75;1.00;;;;;;;6.01;50.47;96903.22;5053899;28;20515;-79
2022/02/05 13:04:29;;;;;;;4.63;1.20;;;;;;;5.91;51.12;96897.84;5053310;28;20041;-78
2022/02/05 13:07:00;;;;;;;4.53;1.15;;;;;;;5.70;50.48;96886.25;5054401;28;20045;-80
2022/02/05 13:09:28;;;;;;;4.18;1.20;;;;;;;5.45;51.97;96879.00;5054363;28;20045;-79
2022/02/05 13:11:57;;;;;;;3.70;1.00;;;;;;;5.44;52.56;96881.97;5054974;28;20064;-79
2022/02/05 13:14:39;;;;;;;5.07;1.20;;;;;;;5.40;53.26;96873.59;5055137;28;20041;-81
2022/02/05 13:17:11;;;;;;;2.55;1.52;;;;;;;5.50;52.29;96873.59;5052732;28;20045;-78
2022/02/05 13:19:55;;;;;;;5.40;0.90;;;;;;;5.50;51.32;96876.28;5053430;28;20041;-78
2022/02/05 13:28:03;;;;;;;5.95;1.30;;;;;;;5.54;52.24;96875.75;5047091;28;20449;-79
2022/02/05 13:33:44;;;;;;;3.85;1.20;;;;;;;5.78;53.09;96868.66;5042457;28;20060;-78
2022/02/05 13:36:15;;;;;;;2.25;0.90;;;;;;;5.85;52.50;96866.50;5054228;28;20112;-79
2022/02/05 13:39:00;;;;;;;2.38;0.90;;;;;;;5.82;52.41;96871.63;5054766;28;20052;-79
2022/02/05 13:41:34;;;;;;;6.15;1.13;;;;;;;5.66;52.22;96878.97;5056670;28;20067;-79